Time;durP1;ratioP1;P1;durP2;ratioP2;P2;SDS_P1;SDS_P2;PMS_P1;PMS_P2;Temp;Humidity;BMP_temperature;BMP_pressure;BME280_temperature;BME280_humidity;BME280_pressure;Samples;Min_cycle;Max_cycle;Signal;HPM_P1;HPM_P2
2023/04/19 00:01:19;;;;;;;5.10;4.60;;;9.90;99.90;;;;;;5093959;28;20390;-86
2023/04/19 00:03:45;;;;;;;5.43;4.93;;;9.80;99.90;;;;;;5074746;28;20751;-85
2023/04/19 00:06:13;;;;;;;5.40;4.90;;;9.80;99.90;;;;;;5093284;28;20413;-85
2023/04/19 00:08:40;;;;;;;5.40;4.90;;;9.80;99.90;;;;;;5075528;28;20798;-85
2023/04/19 00:11:06;;;;;;;4.93;4.43;;;9.80;99.90;;;;;;5075180;28;20378;-85
2023/04/19 00:13:32;;;;;;;5.28;4.57;;;9.80;99.90;;;;;;5075533;28;20379;-85
2023/04/19 00:15:57;;;;;;;5.00;4.60;;;9.80;99.90;;;;;;5097496;28;20419;-86
2023/04/19 00:18:23;;;;;;;5.32;4.93;;;9.80;99.90;;;;;;5110963;28;20418;-86
2023/04/19 00:20:49;;;;;;;5.23;4.73;;;9.70;99.90;;;;;;5107949;28;20501;-86
2023/04/19 00:23:14;;;;;;;5.47;4.97;;;9.60;99.90;;;;;;5088684;28;20420;-86
2023/04/19 00:25:40;;;;;;;5.30;4.80;;;9.50;99.90;;;;;;5087204;28;20394;-86
2023/04/19 00:28:05;;;;;;;4.70;4.30;;;9.30;99.90;;;;;;5085154;28;20378;-85
2023/04/19 00:30:31;;;;;;;5.10;4.70;;;9.20;99.90;;;;;;5078842;28;20430;-85
2023/04/19 00:32:56;;;;;;;5.20;4.70;;;9.00;99.90;;;;;;5078580;28;20438;-85
2023/04/19 00:35:22;;;;;;;6.03;4.73;;;8.80;99.90;;;;;;5095998;28;20394;-85
2023/04/19 00:37:47;;;;;;;5.60;5.00;;;8.80;99.90;;;;;;5094782;28;20393;-85
2023/04/19 00:40:13;;;;;;;5.80;5.20;;;8.70;99.90;;;;;;5076783;28;20431;-85
2023/04/19 00:42:38;;;;;;;5.20;4.70;;;8.60;99.90;;;;;;5076454;28;20401;-85
2023/04/19 00:45:04;;;;;;;5.83;5.33;;;8.60;99.90;;;;;;5110665;28;20408;-86
2023/04/19 00:47:30;;;;;;;6.43;5.00;;;8.60;99.90;;;;;;5084015;28;20402;-85
2023/04/19 00:49:55;;;;;;;5.93;5.20;;;8.50;99.90;;;;;;5075591;28;20429;-85
2023/04/19 00:52:22;;;;;;;5.93;5.33;;;8.50;99.90;;;;;;5076149;28;20419;-85
2023/04/19 00:54:48;;;;;;;7.10;5.30;;;8.30;99.90;;;;;;5093016;28;20416;-86
2023/04/19 00:57:15;;;;;;;5.63;5.13;;;8.20;99.90;;;;;;5074296;28;20393;-85
2023/04/19 00:59:41;;;;;;;5.70;5.10;;;8.30;99.90;;;;;;5055895;28;20379;-85
2023/04/19 01:02:06;;;;;;;5.60;5.00;;;8.10;99.90;;;;;;5072028;28;20754;-85
2023/04/19 01:04:32;;;;;;;5.50;4.87;;;8.10;99.90;;;;;;5053796;28;20470;-85
2023/04/19 01:06:58;;;;;;;5.30;4.90;;;8.00;99.90;;;;;;5054365;28;20445;-85
2023/04/19 01:09:23;;;;;;;5.43;4.93;;;8.00;99.90;;;;;;5072553;28;20380;-85
2023/04/19 01:11:49;;;;;;;5.40;4.90;;;8.00;99.90;;;;;;5087533;28;20431;-86
2023/04/19 01:14:15;;;;;;;5.53;5.03;;;7.90;99.90;;;;;;5077904;28;20395;-85
2023/04/19 01:16:41;;;;;;;5.57;5.07;;;7.90;99.90;;;;;;5054299;28;20387;-85
2023/04/19 01:19:07;;;;;;;5.77;5.07;;;7.80;99.90;;;;;;5054381;28;20393;-86
2023/04/19 01:21:37;;;;;;;5.22;4.70;;;7.80;99.90;;;;;;5053917;28;20412;-85
2023/04/19 01:24:02;;;;;;;5.60;5.10;;;7.80;99.90;;;;;;5054034;28;20518;-85
2023/04/19 01:26:28;;;;;;;7.75;5.32;;;7.80;99.90;;;;;;5053895;28;20402;-85
2023/04/19 01:28:53;;;;;;;5.50;5.00;;;7.90;99.90;;;;;;5071444;28;20862;-85
2023/04/19 01:31:19;;;;;;;6.00;5.40;;;7.90;99.90;;;;;;5071397;28;20387;-85
2023/04/19 01:33:44;;;;;;;6.30;5.70;;;7.80;99.90;;;;;;5054030;28;20426;-85
2023/04/19 01:36:10;;;;;;;5.78;5.22;;;7.80;99.90;;;;;;5052701;28;20898;-85
2023/04/19 01:38:36;;;;;;;7.00;5.35;;;7.80;99.90;;;;;;5071344;28;20445;-85
2023/04/19 01:41:01;;;;;;;6.70;5.70;;;7.80;99.90;;;;;;5071136;28;20411;-85
2023/04/19 01:43:27;;;;;;;7.30;5.60;;;7.80;99.90;;;;;;5071032;28;20388;-85
2023/04/19 01:45:52;;;;;;;6.60;5.53;;;7.80;99.90;;;;;;5052837;28;20382;-85
2023/04/19 01:48:17;;;;;;;6.20;5.60;;;7.80;99.90;;;;;;5053315;28;20388;-85
2023/04/19 01:50:43;;;;;;;6.40;5.55;;;7.80;99.90;;;;;;5053331;28;20402;-85
2023/04/19 01:53:09;;;;;;;5.60;5.10;;;7.80;99.90;;;;;;5061001;28;20413;-86
2023/04/19 01:55:34;;;;;;;6.20;5.60;;;7.70;99.90;;;;;;5067353;28;20476;-85
2023/04/19 01:58:00;;;;;;;6.67;6.07;;;7.70;99.90;;;;;;5056781;28;20478;-85
2023/04/19 02:00:25;;;;;;;6.35;5.75;;;7.60;99.90;;;;;;5054236;28;20392;-85
2023/04/19 02:02:51;;;;;;;7.45;6.65;;;7.70;99.90;;;;;;5055955;28;20575;-85
2023/04/19 02:05:16;;;;;;;7.13;6.00;;;7.70;99.90;;;;;;5078810;28;20380;-85
2023/04/19 02:07:42;;;;;;;6.33;5.73;;;7.80;99.90;;;;;;5058787;28;20383;-85
2023/04/19 02:10:11;;;;;;;6.63;5.93;;;7.80;99.90;;;;;;5054851;28;20765;-85
2023/04/19 02:12:37;;;;;;;6.30;5.80;;;7.70;99.90;;;;;;5071722;28;20395;-85
2023/04/19 02:15:03;;;;;;;6.80;6.10;;;7.70;99.90;;;;;;5071393;28;20881;-85
2023/04/19 02:17:29;;;;;;;7.20;6.28;;;7.70;99.90;;;;;;5057041;28;20392;-86
2023/04/19 02:19:55;;;;;;;6.82;6.00;;;7.50;99.90;;;;;;5075501;28;20448;-85
2023/04/19 02:22:20;;;;;;;6.50;5.90;;;7.60;99.90;;;;;;5075425;28;20457;-85
2023/04/19 02:24:48;;;;;;;6.80;6.10;;;7.70;99.90;;;;;;5056778;28;20480;-86
2023/04/19 02:27:14;;;;;;;6.97;6.27;;;7.80;99.90;;;;;;5070922;28;20375;-85
2023/04/19 02:29:39;;;;;;;7.50;6.80;;;7.80;99.90;;;;;;5052999;28;20402;-85
2023/04/19 02:32:05;;;;;;;7.37;6.67;;;7.80;99.90;;;;;;5053384;28;20392;-85
2023/04/19 02:34:31;;;;;;;7.18;6.50;;;7.70;99.90;;;;;;5053352;28;20889;-86
2023/04/19 02:36:57;;;;;;;7.20;6.50;;;7.80;99.90;;;;;;5089458;28;20383;-86
2023/04/19 02:39:23;;;;;;;7.25;6.55;;;7.90;99.90;;;;;;5072879;28;20395;-85
2023/04/19 02:41:49;;;;;;;7.78;6.97;;;8.00;99.90;;;;;;5108138;22;20438;-86
2023/04/19 02:44:14;;;;;;;6.60;6.00;;;8.10;99.90;;;;;;5092335;28;20378;-86
2023/04/19 02:46:40;;;;;;;6.40;5.80;;;8.20;99.90;;;;;;5091721;28;20724;-86
2023/04/19 02:49:05;;;;;;;7.10;6.40;;;8.20;99.90;;;;;;5073847;28;20378;-87
2023/04/19 02:51:31;;;;;;;7.03;6.32;;;8.10;99.90;;;;;;5061603;28;20380;-86
2023/04/19 02:53:57;;;;;;;7.13;6.43;;;8.00;99.90;;;;;;5071851;28;20821;-85
2023/04/19 02:56:22;;;;;;;6.47;5.87;;;7.90;99.90;;;;;;5070367;28;20402;-85
2023/04/19 02:58:48;;;;;;;7.13;6.20;;;7.90;99.90;;;;;;5091054;28;20392;-86
2023/04/19 03:01:13;;;;;;;7.30;6.47;;;7.80;99.90;;;;;;5082203;28;20453;-85
2023/04/19 03:03:39;;;;;;;6.90;6.30;;;7.80;99.90;;;;;;5097249;28;20425;-86
2023/04/19 03:06:04;;;;;;;6.82;6.13;;;7.80;99.90;;;;;;5074963;28;20415;-86
2023/04/19 03:08:30;;;;;;;7.43;6.63;;;7.80;99.90;;;;;;5057626;28;20380;-86
2023/04/19 03:10:55;;;;;;;6.50;5.80;;;7.70;99.90;;;;;;5086710;28;20390;-87
2023/04/19 03:13:21;;;;;;;6.80;6.20;;;7.70;99.90;;;;;;5087973;28;20393;-86
2023/04/19 03:15:47;;;;;;;6.60;6.00;;;7.60;99.90;;;;;;5066309;28;20502;-87
2023/04/19 03:18:13;;;;;;;6.47;5.78;;;7.50;99.90;;;;;;5057644;28;20452;-86
2023/04/19 03:20:38;;;;;;;7.10;6.40;;;7.50;99.90;;;;;;5056747;28;20789;-86
2023/04/19 03:23:04;;;;;;;5.90;5.30;;;7.30;99.90;;;;;;5057301;28;20388;-87
2023/04/19 03:25:29;;;;;;;6.57;5.90;;;7.40;99.90;;;;;;5057146;28;20477;-86
2023/04/19 03:27:55;;;;;;;7.20;6.03;;;7.30;99.90;;;;;;5074774;28;20380;-87
2023/04/19 03:30:21;;;;;;;6.20;5.60;;;7.20;99.90;;;;;;5054663;28;20398;-86
2023/04/19 03:32:47;;;;;;;6.60;5.90;;;7.20;99.90;;;;;;5067700;28;20928;-86
2023/04/19 03:35:12;;;;;;;6.82;6.13;;;7.20;99.90;;;;;;5046616;28;20472;-86
2023/04/19 03:37:38;;;;;;;6.63;5.93;;;7.20;99.90;;;;;;5036410;28;20392;-86
2023/04/19 03:40:04;;;;;;;6.30;5.75;;;7.10;99.90;;;;;;5054812;28;20393;-86
2023/04/19 03:42:30;;;;;;;7.00;6.40;;;7.10;99.90;;;;;;5036773;28;20409;-86
2023/04/19 03:44:56;;;;;;;6.50;5.63;;;7.00;99.90;;;;;;5036619;28;20443;-86
2023/04/19 03:47:21;;;;;;;7.10;6.40;;;7.40;99.90;;;;;;5054143;28;20378;-86
2023/04/19 03:49:47;;;;;;;6.97;5.90;;;7.00;99.90;;;;;;5036514;28;20382;-86
2023/04/19 03:52:12;;;;;;;6.27;5.67;;;7.00;99.90;;;;;;5035912;28;20455;-86
2023/04/19 03:54:38;;;;;;;6.47;5.87;;;7.10;99.90;;;;;;5054947;28;20476;-86
2023/04/19 03:57:04;;;;;;;6.43;5.83;;;7.20;99.90;;;;;;5053995;28;20420;-86
2023/04/19 03:59:30;;;;;;;7.65;6.00;;;7.20;99.90;;;;;;5052978;28;20388;-86
2023/04/19 04:01:55;;;;;;;7.70;6.10;;;7.30;99.90;;;;;;5074066;28;20404;-86
2023/04/19 04:04:21;;;;;;;6.20;5.60;;;7.40;99.90;;;;;;5056714;28;20384;-86
2023/04/19 04:06:46;;;;;;;6.00;5.40;;;7.40;99.90;;;;;;5056284;28;20376;-86
2023/04/19 04:09:12;;;;;;;7.70;6.40;;;7.40;99.90;;;;;;5074076;28;20384;-86
2023/04/19 04:11:37;;;;;;;6.95;6.25;;;7.50;99.90;;;;;;5055983;28;20861;-87
2023/04/19 04:14:03;;;;;;;6.80;5.93;;;7.50;99.90;;;;;;5075139;28;20394;-87
2023/04/19 04:16:29;;;;;;;6.10;5.50;;;7.60;99.90;;;;;;5075758;28;20393;-86
2023/04/19 04:18:54;;;;;;;6.93;6.10;;;7.60;99.90;;;;;;5057047;28;20407;-85
2023/04/19 04:21:20;;;;;;;6.57;5.87;;;7.60;99.90;;;;;;5057080;28;20813;-86
2023/04/19 04:23:46;;;;;;;6.18;5.57;;;7.60;99.90;;;;;;5057640;28;20426;-86
2023/04/19 04:26:12;;;;;;;5.93;5.43;;;7.50;99.90;;;;;;5057327;28;20443;-86
2023/04/19 04:28:38;;;;;;;6.20;5.60;;;7.60;99.90;;;;;;5073722;28;20384;-86
2023/04/19 04:31:04;;;;;;;6.97;6.07;;;7.60;99.90;;;;;;5056478;28;21001;-86
2023/04/19 04:33:30;;;;;;;6.00;5.50;;;7.80;99.90;;;;;;5055560;28;20403;-86
2023/04/19 04:35:56;;;;;;;6.27;5.53;;;7.70;99.90;;;;;;5055464;28;20388;-87
2023/04/19 04:38:22;;;;;;;6.65;6.05;;;7.90;99.90;;;;;;5055995;28;20399;-86
2023/04/19 04:40:54;;;;;;;7.40;6.40;;;8.00;99.90;;;;;;5071827;28;20411;-85
2023/04/19 04:43:27;;;;;;;6.75;6.15;;;8.10;99.90;;;;;;5065462;28;20403;-86
2023/04/19 04:45:54;;;;;;;6.90;6.30;;;8.20;99.90;;;;;;5060320;28;20384;-87
2023/04/19 04:48:19;;;;;;;6.72;6.13;;;10.40;99.90;;;;;;5058595;28;20398;-86
2023/04/19 04:50:45;;;;;;;6.38;5.78;;;7.80;99.90;;;;;;5055569;28;20451;-86
2023/04/19 04:53:11;;;;;;;6.33;5.80;;;8.10;99.90;;;;;;5056204;28;20447;-87
2023/04/19 04:55:37;;;;;;;6.88;6.28;;;8.10;99.90;;;;;;5055403;28;20395;-86
2023/04/19 04:58:04;;;;;;;7.10;6.40;;;8.00;99.90;;;;;;5060154;28;20398;-86
2023/04/19 05:00:30;;;;;;;6.93;6.22;;;8.00;99.90;;;;;;5043227;28;20390;-86
2023/04/19 05:02:56;;;;;;;7.60;6.80;;;8.10;99.90;;;;;;5035973;28;20898;-86
2023/04/19 05:05:21;;;;;;;7.10;6.30;;;8.10;99.90;;;;;;5034380;28;20418;-86
2023/04/19 05:07:47;;;;;;;7.90;5.90;;;8.20;99.90;;;;;;5052959;28;20397;-86
2023/04/19 05:10:12;;;;;;;6.83;6.23;;;8.30;99.90;;;;;;5035132;28;20907;-85
2023/04/19 05:12:38;;;;;;;6.57;5.97;;;8.20;99.90;;;;;;5035825;28;20404;-85
2023/04/19 05:15:04;;;;;;;7.68;6.20;;;8.30;99.90;;;;;;5044951;28;20429;-84
2023/04/19 05:17:30;;;;;;;7.63;6.82;;;8.30;99.90;;;;;;5071119;28;20381;-85
2023/04/19 05:19:55;;;;;;;8.07;7.28;;;8.40;99.90;;;;;;5059180;28;20468;-85
2023/04/19 05:22:21;;;;;;;6.47;5.80;;;8.40;99.90;;;;;;5057864;28;20409;-84
2023/04/19 05:24:48;;;;;;;6.87;6.20;;;8.40;99.90;;;;;;5059278;28;20404;-84
2023/04/19 05:27:14;;;;;;;7.72;6.60;;;8.40;99.90;;;;;;5059442;28;20389;-86
2023/04/19 05:29:40;;;;;;;6.80;6.03;;;8.10;99.90;;;;;;5065695;28;20400;-85
2023/04/19 05:32:06;;;;;;;7.28;6.57;;;8.40;99.90;;;;;;5046189;28;20433;-85
2023/04/19 05:34:32;;;;;;;7.40;6.70;;;8.50;99.90;;;;;;5043256;28;20608;-86
2023/04/19 05:36:58;;;;;;;6.95;6.15;;;8.50;99.90;;;;;;5063342;28;20381;-85
2023/04/19 05:39:24;;;;;;;6.95;6.25;;;8.50;99.90;;;;;;5074046;28;20384;-85
2023/04/19 05:41:49;;;;;;;6.70;6.10;;;8.60;99.90;;;;;;5056013;28;20487;-86
2023/04/19 05:44:15;;;;;;;7.15;6.45;;;8.60;99.90;;;;;;5056485;28;20454;-85
2023/04/19 05:46:40;;;;;;;8.30;7.40;;;8.70;99.90;;;;;;5073733;28;20908;-85
2023/04/19 05:49:06;;;;;;;7.40;6.60;;;8.80;99.90;;;;;;5077131;28;20384;-84
2023/04/19 05:51:31;;;;;;;7.93;7.13;;;8.90;99.90;;;;;;5074848;28;20391;-85
2023/04/19 05:53:59;;;;;;;7.50;6.80;;;8.90;99.90;;;;;;5074404;28;20812;-85
2023/04/19 05:56:25;;;;;;;8.00;7.20;;;8.80;99.90;;;;;;5045137;28;20841;-85
2023/04/19 05:58:50;;;;;;;8.63;7.03;;;9.00;99.90;;;;;;5066423;28;20395;-85
2023/04/19 06:01:16;;;;;;;7.57;6.77;;;9.10;99.90;;;;;;5071279;28;20494;-86
2023/04/19 06:03:41;;;;;;;7.77;6.47;;;9.10;99.90;;;;;;5050361;28;20380;-85
2023/04/19 06:06:07;;;;;;;7.90;6.80;;;9.10;99.90;;;;;;5073544;28;20394;-85
2023/04/19 06:08:32;;;;;;;8.00;7.03;;;9.20;99.90;;;;;;5055969;28;20997;-85
2023/04/19 06:10:59;;;;;;;7.17;6.47;;;9.10;99.90;;;;;;5072463;28;20476;-84
2023/04/19 06:13:24;;;;;;;7.32;6.63;;;9.10;99.90;;;;;;5056125;28;20426;-86
2023/04/19 06:15:50;;;;;;;7.75;7.05;;;9.20;99.90;;;;;;5073743;28;20388;-86
2023/04/19 06:18:16;;;;;;;9.15;7.55;;;10.80;99.90;;;;;;5057033;28;20895;-86
2023/04/19 06:20:41;;;;;;;7.60;6.90;;;9.10;99.90;;;;;;5067268;28;20383;-86
2023/04/19 06:23:07;;;;;;;7.10;6.50;;;9.90;99.90;;;;;;5070036;28;20873;-86
2023/04/19 06:25:35;;;;;;;7.93;6.60;;;9.40;99.90;;;;;;5082895;28;20387;-85
2023/04/19 06:28:00;;;;;;;6.82;6.13;;;9.40;99.90;;;;;;5062850;28;20405;-86
2023/04/19 06:30:26;;;;;;;7.40;6.70;;;10.80;99.90;;;;;;5055136;28;20391;-86
2023/04/19 06:32:51;;;;;;;7.10;6.40;;;9.50;99.90;;;;;;5053932;28;20389;-86
2023/04/19 06:35:17;;;;;;;7.25;6.55;;;9.50;99.90;;;;;;5058073;28;20393;-85
2023/04/19 06:37:43;;;;;;;9.63;7.28;;;9.20;99.90;;;;;;5057648;28;20739;-86
2023/04/19 06:40:09;;;;;;;8.97;7.27;;;9.40;99.90;;;;;;5055446;28;20472;-86
2023/04/19 06:42:34;;;;;;;7.30;6.60;;;9.50;99.90;;;;;;5057202;28;20424;-86
2023/04/19 06:45:00;;;;;;;7.90;7.10;;;9.50;99.90;;;;;;5070674;28;20397;-85
2023/04/19 06:47:27;;;;;;;10.00;8.98;;;9.60;99.90;;;;;;5079075;28;20453;-86
2023/04/19 06:49:53;;;;;;;8.90;7.97;;;9.60;99.90;;;;;;5073476;28;20483;-86
2023/04/19 06:52:18;;;;;;;8.40;7.40;;;9.90;99.90;;;;;;5056685;28;20390;-86
2023/04/19 06:54:48;;;;;;;9.13;8.07;;;9.90;99.90;;;;;;5058766;28;20393;-86
2023/04/19 06:57:14;;;;;;;9.18;7.65;;;9.90;99.90;;;;;;5061311;28;20756;-86
2023/04/19 06:59:39;;;;;;;11.25;9.02;;;9.80;99.90;;;;;;5041604;28;20472;-84
2023/04/19 07:02:05;;;;;;;8.30;7.33;;;9.90;99.90;;;;;;5040111;28;20437;-83
2023/04/19 07:04:31;;;;;;;8.90;8.00;;;9.90;99.90;;;;;;5057689;28;20381;-83
2023/04/19 07:06:57;;;;;;;8.70;7.80;;;10.00;99.90;;;;;;5058189;28;20439;-83
2023/04/19 07:09:22;;;;;;;10.70;8.10;;;10.10;99.90;;;;;;5039822;28;20895;-82
2023/04/19 07:11:50;;;;;;;9.07;8.00;;;10.10;99.90;;;;;;5058118;28;20468;-83
2023/04/19 07:14:18;;;;;;;9.25;7.82;;;10.00;99.90;;;;;;5058219;28;20389;-84
2023/04/19 07:16:44;;;;;;;8.60;7.70;;;10.10;99.90;;;;;;5039409;28;20428;-83
2023/04/19 07:19:10;;;;;;;10.00;8.00;;;10.10;99.90;;;;;;5057252;28;20424;-83
2023/04/19 07:21:37;;;;;;;8.20;7.40;;;10.10;99.90;;;;;;5038857;28;20437;-83
2023/04/19 07:24:03;;;;;;;9.02;8.13;;;10.20;99.90;;;;;;5056780;28;20385;-83
2023/04/19 07:26:28;;;;;;;9.00;8.10;;;10.30;99.90;;;;;;5056636;28;20930;-82
2023/04/19 07:28:54;;;;;;;9.67;8.67;;;10.50;99.90;;;;;;5057652;28;20385;-82
2023/04/19 07:31:20;;;;;;;10.97;8.03;;;10.40;99.90;;;;;;5042862;28;21017;-82
2023/04/19 07:33:46;;;;;;;9.70;8.60;;;10.30;99.90;;;;;;5056633;28;20401;-82
2023/04/19 07:36:14;;;;;;;9.20;8.30;;;10.30;99.90;;;;;;5059608;28;20389;-82
2023/04/19 07:38:39;;;;;;;10.20;9.00;;;10.50;99.90;;;;;;5059974;28;20380;-81
2023/04/19 07:41:05;;;;;;;9.47;8.50;;;10.80;99.90;;;;;;5077355;28;20425;-81
2023/04/19 07:43:30;;;;;;;8.73;7.93;;;10.90;99.90;;;;;;5055244;28;20397;-82
2023/04/19 07:45:56;;;;;;;9.32;8.40;;;10.90;99.90;;;;;;5052292;28;20397;-82
2023/04/19 07:48:21;;;;;;;8.53;7.63;;;10.80;99.90;;;;;;5075491;28;20389;-81
2023/04/19 07:50:47;;;;;;;9.40;7.63;;;10.60;99.90;;;;;;5077054;28;20381;-83
2023/04/19 07:53:13;;;;;;;8.90;8.00;;;10.70;99.90;;;;;;5059285;28;20401;-82
2023/04/19 07:55:39;;;;;;;8.90;8.00;;;10.60;99.90;;;;;;5076644;28;20390;-82
2023/04/19 07:58:04;;;;;;;9.88;8.98;;;10.60;99.90;;;;;;5081725;28;20455;-83
2023/04/19 08:00:30;;;;;;;9.13;8.25;;;10.70;99.90;;;;;;5096797;28;20398;-82
2023/04/19 08:02:56;;;;;;;8.45;7.65;;;10.90;99.90;;;;;;5078963;28;20407;-82
2023/04/19 08:05:22;;;;;;;8.70;7.80;;;11.00;99.90;;;;;;5078780;28;20371;-82
2023/04/19 08:07:50;;;;;;;8.55;7.75;;;11.00;99.90;;;;;;5095060;28;20429;-80
2023/04/19 08:10:18;;;;;;;9.07;8.18;;;10.90;99.90;;;;;;5072647;28;20438;-82
2023/04/19 08:12:43;;;;;;;9.00;8.20;;;10.90;99.90;;;;;;5067460;28;20384;-83
2023/04/19 08:15:09;;;;;;;8.95;8.10;;;11.10;99.90;;;;;;5083497;28;20399;-83
2023/04/19 08:17:35;;;;;;;9.35;7.80;;;11.20;99.90;;;;;;5058298;28;20392;-82
2023/04/19 08:20:00;;;;;;;9.33;8.40;;;11.20;99.90;;;;;;5076834;28;20376;-83
2023/04/19 08:22:26;;;;;;;9.10;8.20;;;11.00;99.90;;;;;;5058232;28;20931;-83
2023/04/19 08:24:52;;;;;;;9.05;8.15;;;11.00;99.90;;;;;;5058180;28;20432;-83
2023/04/19 08:27:18;;;;;;;8.88;7.97;;;11.10;99.90;;;;;;5075300;28;20392;-83
2023/04/19 08:29:44;;;;;;;8.70;8.00;;;11.20;99.90;;;;;;5058731;28;20448;-83
2023/04/19 08:32:11;;;;;;;9.35;8.48;;;11.10;99.90;;;;;;5075756;28;20404;-83
2023/04/19 08:34:38;;;;;;;9.02;8.13;;;11.10;99.90;;;;;;5077193;28;20376;-83
2023/04/19 08:37:04;;;;;;;8.98;8.18;;;11.30;99.90;;;;;;5059968;28;20383;-83
2023/04/19 08:39:36;;;;;;;9.10;7.20;;;11.50;99.90;;;;;;5077817;28;20421;-82
2023/04/19 08:42:07;;;;;;;9.07;7.53;;;11.60;99.90;;;;;;5108716;22;20423;-80
2023/04/19 08:44:37;;;;;;;8.05;7.25;;;11.60;99.90;;;;;;5091385;28;20407;-79
2023/04/19 08:47:04;;;;;;;9.00;8.10;;;11.70;99.90;;;;;;5091870;28;20363;-79
2023/04/19 08:49:33;;;;;;;9.20;7.85;;;11.90;99.90;;;;;;5070892;28;20907;-81
2023/04/19 08:52:01;;;;;;;12.00;8.93;;;11.90;99.90;;;;;;5082604;28;20379;-80
2023/04/19 08:54:28;;;;;;;8.80;8.00;;;12.00;99.90;;;;;;5081541;28;20390;-81
2023/04/19 08:56:55;;;;;;;9.07;7.97;;;12.10;99.90;;;;;;5064508;28;20372;-82
2023/04/19 08:59:21;;;;;;;11.82;9.15;;;12.20;99.90;;;;;;5081035;28;20422;-81
2023/04/19 09:01:46;;;;;;;9.13;8.33;;;12.20;99.90;;;;;;5086999;28;20411;-80
2023/04/19 09:04:12;;;;;;;9.90;8.77;;;12.30;99.90;;;;;;5092815;28;20731;-79
2023/04/19 09:06:39;;;;;;;10.45;8.98;;;12.40;99.90;;;;;;5093438;28;20387;-78
2023/04/19 09:09:24;;;;;;;9.35;8.10;;;12.00;99.90;;;;;;5083971;28;20862;-81
2023/04/19 09:11:50;;;;;;;8.65;7.80;;;12.10;99.90;;;;;;5065346;28;20386;-81
2023/04/19 09:14:17;;;;;;;8.60;7.80;;;12.10;99.90;;;;;;5066187;28;20447;-80
2023/04/19 09:16:43;;;;;;;10.80;8.90;;;12.10;99.90;;;;;;5084877;28;20482;-80
2023/04/19 09:19:11;;;;;;;10.43;9.32;;;12.40;99.90;;;;;;5084329;28;20384;-81
2023/04/19 09:21:37;;;;;;;10.90;9.80;;;12.30;99.90;;;;;;5083197;28;20422;-81
2023/04/19 09:24:03;;;;;;;11.13;9.85;;;12.20;99.90;;;;;;5064511;28;20909;-81
2023/04/19 09:26:29;;;;;;;11.63;8.68;;;12.40;99.90;;;;;;5063474;28;20410;-80
2023/04/19 09:28:56;;;;;;;10.68;9.45;;;12.30;99.90;;;;;;5063242;28;20380;-81
2023/04/19 09:31:22;;;;;;;11.73;9.63;;;12.20;99.90;;;;;;5080872;28;20855;-79
2023/04/19 09:33:48;;;;;;;10.40;9.40;;;12.00;99.90;;;;;;5061838;28;20419;-80
2023/04/19 09:36:30;;;;;;;9.25;8.23;;;12.00;99.90;;;;;;5078816;28;20391;-80
2023/04/19 09:38:56;;;;;;;8.30;7.60;;;12.00;99.90;;;;;;5079830;28;20750;-80
2023/04/19 09:41:22;;;;;;;8.30;7.50;;;12.10;99.90;;;;;;5081337;28;20848;-78
2023/04/19 09:43:47;;;;;;;7.63;6.80;;;12.20;99.90;;;;;;5062709;28;20376;-80
2023/04/19 09:46:33;;;;;;;6.70;6.10;;;12.20;99.90;;;;;;5062713;28;20949;-80
2023/04/19 09:49:22;;;;;;;7.20;5.90;;;12.40;99.90;;;;;;5061508;28;20380;-80
2023/04/19 09:51:50;;;;;;;6.00;5.50;;;12.40;99.90;;;;;;5061870;28;20384;-80
2023/04/19 09:54:18;;;;;;;5.95;5.45;;;12.50;99.90;;;;;;5079851;28;20402;-80
2023/04/19 09:56:44;;;;;;;6.45;5.85;;;12.50;99.90;;;;;;5078686;28;20478;-80
2023/04/19 09:59:10;;;;;;;6.65;5.97;;;12.50;98.20;;;;;;5047312;28;20457;-80
2023/04/19 10:01:52;;;;;;;6.13;5.63;;;12.30;99.90;;;;;;5060764;28;20409;-81
2023/04/19 10:04:22;;;;;;;6.63;6.03;;;12.50;96.70;;;;;;5059647;28;20468;-80
2023/04/19 10:06:52;;;;;;;7.03;6.43;;;12.70;95.50;;;;;;5044821;28;20457;-80
2023/04/19 10:09:21;;;;;;;7.53;6.78;;;12.70;99.50;;;;;;5044976;28;20400;-80
2023/04/19 10:11:52;;;;;;;7.57;6.97;;;12.50;99.90;;;;;;5041809;28;20390;-79
2023/04/19 10:14:24;;;;;;;7.87;7.27;;;12.50;99.90;;;;;;5060870;28;20393;-80
2023/04/19 10:16:50;;;;;;;7.87;7.20;;;12.40;99.90;;;;;;5060748;28;20385;-80
2023/04/19 10:19:18;;;;;;;7.80;7.10;;;12.40;99.90;;;;;;5059377;28;20377;-80
2023/04/19 10:21:46;;;;;;;7.45;6.75;;;12.40;99.90;;;;;;5058993;28;20413;-80
2023/04/19 10:24:13;;;;;;;7.75;7.05;;;12.50;97.40;;;;;;5041127;28;20389;-81
2023/04/19 10:27:06;;;;;;;8.60;7.70;;;12.50;99.90;;;;;;5058326;28;20413;-81
2023/04/19 10:29:54;;;;;;;9.20;8.40;;;12.50;99.90;;;;;;5041082;28;20384;-80
2023/04/19 10:32:19;;;;;;;9.07;8.27;;;12.60;99.90;;;;;;5060074;28;20932;-80
2023/04/19 10:34:46;;;;;;;9.00;8.10;;;12.30;99.90;;;;;;5041622;28;20390;-81
2023/04/19 10:37:14;;;;;;;10.63;9.50;;;12.30;99.90;;;;;;5070516;28;20834;-81
2023/04/19 10:39:43;;;;;;;9.67;8.53;;;12.40;99.90;;;;;;5079178;28;20455;-81
2023/04/19 10:42:09;;;;;;;9.65;8.75;;;12.20;99.90;;;;;;5070213;28;20403;-82
2023/04/19 10:44:35;;;;;;;9.35;8.45;;;12.40;99.90;;;;;;5069867;28;20442;-82
2023/04/19 10:47:01;;;;;;;9.82;8.82;;;12.40;99.90;;;;;;5050437;28;20419;-81
2023/04/19 10:49:30;;;;;;;9.68;8.43;;;12.30;99.90;;;;;;5068150;28;20412;-82
2023/04/19 10:51:56;;;;;;;9.10;8.20;;;12.40;99.90;;;;;;5051447;28;20402;-83
2023/04/19 10:54:33;;;;;;;10.25;9.25;;;12.20;99.90;;;;;;5044358;28;20810;-82
2023/04/19 10:57:09;;;;;;;10.38;9.20;;;12.30;99.90;;;;;;5067868;28;20455;-82
2023/04/19 10:59:35;;;;;;;9.70;8.77;;;12.20;99.90;;;;;;5073454;28;20445;-81
2023/04/19 11:02:03;;;;;;;8.80;7.95;;;12.40;99.90;;;;;;5053357;28;20410;-81
2023/04/19 11:04:28;;;;;;;9.05;8.25;;;12.40;99.90;;;;;;5053424;28;20405;-80
2023/04/19 11:06:55;;;;;;;9.50;8.60;;;12.40;99.90;;;;;;5068238;28;20384;-82
2023/04/19 11:09:33;;;;;;;9.57;8.68;;;12.40;99.90;;;;;;5071002;28;20448;-81
2023/04/19 11:12:07;;;;;;;10.60;9.60;;;12.40;99.90;;;;;;5070713;28;20413;-81
2023/04/19 11:14:52;;;;;;;10.10;9.10;;;12.30;99.90;;;;;;5066716;28;20481;-81
2023/04/19 11:17:27;;;;;;;10.05;9.05;;;12.30;99.90;;;;;;5077148;28;20394;-82
2023/04/19 11:20:08;;;;;;;10.68;9.57;;;12.30;99.90;;;;;;5061356;28;20467;-78
2023/04/19 11:22:41;;;;;;;11.80;9.13;;;12.30;99.90;;;;;;5076244;28;20417;-80
2023/04/19 11:25:12;;;;;;;9.52;8.73;;;12.40;99.90;;;;;;5056519;28;20385;-81
2023/04/19 11:27:40;;;;;;;10.40;9.40;;;12.40;99.90;;;;;;5086322;28;20379;-78
2023/04/19 11:30:11;;;;;;;10.05;9.07;;;12.40;99.90;;;;;;5081765;28;20463;-81
2023/04/19 11:32:37;;;;;;;9.20;8.40;;;12.70;99.90;;;;;;5054832;28;20390;-81
2023/04/19 11:35:07;;;;;;;9.73;8.83;;;12.70;99.90;;;;;;5070579;28;20386;-82
2023/04/19 11:37:38;;;;;;;9.57;8.68;;;12.80;99.90;;;;;;5072515;28;20386;-81
2023/04/19 11:40:05;;;;;;;9.60;8.70;;;12.70;99.90;;;;;;5071110;28;20822;-80
2023/04/19 11:42:32;;;;;;;9.73;8.73;;;12.90;99.90;;;;;;5055704;28;20435;-79
2023/04/19 11:44:58;;;;;;;9.47;8.30;;;12.80;99.90;;;;;;5057752;28;20411;-78
2023/04/19 11:47:25;;;;;;;8.45;7.65;;;12.80;99.90;;;;;;5058190;28;20389;-80
2023/04/19 11:49:51;;;;;;;7.90;7.10;;;12.80;99.90;;;;;;5083416;28;20392;-81
2023/04/19 11:52:25;;;;;;;7.82;7.03;;;13.00;99.90;;;;;;5073288;28;20408;-80
2023/04/19 11:54:53;;;;;;;7.70;7.00;;;12.90;99.90;;;;;;5075797;28;20387;-80
2023/04/19 11:57:29;;;;;;;7.65;6.85;;;12.90;99.90;;;;;;5073470;28;20381;-80
2023/04/19 12:00:10;;;;;;;7.93;7.17;;;12.80;99.90;;;;;;5072377;28;20416;-80
2023/04/19 12:02:38;;;;;;;7.80;7.10;;;12.80;99.90;;;;;;5070718;28;20468;-79
2023/04/19 12:05:11;;;;;;;7.40;6.80;;;12.70;99.90;;;;;;5071928;28;20380;-81
2023/04/19 12:07:56;;;;;;;7.70;7.00;;;12.80;99.90;;;;;;5074272;28;20382;-81
2023/04/19 12:10:21;;;;;;;7.00;6.30;;;12.50;99.90;;;;;;5072679;28;20392;-81
2023/04/19 12:12:47;;;;;;;7.70;6.60;;;12.50;99.90;;;;;;5072569;28;20379;-81
2023/04/19 12:15:12;;;;;;;6.60;6.00;;;12.50;99.90;;;;;;5072131;28;20389;-79
2023/04/19 12:17:57;;;;;;;6.77;6.17;;;12.60;99.90;;;;;;5071352;28;20439;-80
2023/04/19 12:20:32;;;;;;;6.72;6.13;;;14.10;91.90;;;;;;5072211;28;20383;-78
2023/04/19 12:22:58;;;;;;;6.60;6.00;;;12.70;99.90;;;;;;5053622;28;20412;-81
2023/04/19 12:25:32;;;;;;;6.60;6.00;;;12.80;99.90;;;;;;5079312;28;20417;-80
2023/04/19 12:27:59;;;;;;;7.30;6.70;;;12.80;99.90;;;;;;5071386;28;20372;-81
2023/04/19 12:30:25;;;;;;;8.07;7.37;;;12.60;99.90;;;;;;5091209;28;20410;-79
2023/04/19 12:32:54;;;;;;;7.20;6.60;;;12.80;99.90;;;;;;5072844;28;20387;-80
2023/04/19 12:35:24;;;;;;;7.72;7.00;;;12.90;99.90;;;;;;5084290;28;20434;-81
2023/04/19 12:37:50;;;;;;;7.90;7.20;;;13.10;97.60;;;;;;5081420;28;20391;-82
2023/04/19 12:40:16;;;;;;;7.70;7.00;;;13.00;94.80;;;;;;5080655;28;20384;-82
2023/04/19 12:42:41;;;;;;;8.07;7.27;;;12.90;99.90;;;;;;5078650;28;20457;-82
2023/04/19 12:45:07;;;;;;;7.20;6.50;;;13.00;99.90;;;;;;5079501;28;20858;-82
2023/04/19 12:47:40;;;;;;;8.35;7.55;;;13.00;99.90;;;;;;5060126;28;20390;-80
2023/04/19 12:50:07;;;;;;;8.00;7.30;;;13.30;99.90;;;;;;5076632;28;20391;-80